createdAt,value
2023-04-25T00:01:57.765Z,48.02
2023-04-25T00:04:43.454Z,48.05
2023-04-25T00:07:29.463Z,47.98
2023-04-25T00:10:14.956Z,48.19
2023-04-25T00:13:03.466Z,48.12
2023-04-25T00:15:49.206Z,48.14
2023-04-25T00:18:34.728Z,47.98
2023-04-25T00:21:20.809Z,48.08
2023-04-25T00:24:06.780Z,48.16
2023-04-25T00:26:51.827Z,48.29
2023-04-25T00:29:37.119Z,48.47
2023-04-25T00:32:22.388Z,48.15
2023-04-25T00:35:08.023Z,48.12
2023-04-25T00:37:53.632Z,48.01
2023-04-25T00:40:38.865Z,48.17
2023-04-25T00:43:27.079Z,48.16
2023-04-25T00:46:13.232Z,48.02
2023-04-25T00:48:59.514Z,48.21
2023-04-25T00:51:45.733Z,48.07
2023-04-25T00:54:31.742Z,48.07
2023-04-25T00:57:17.187Z,48.35
2023-04-25T01:00:06.468Z,48.22
2023-04-25T01:02:52.593Z,48.19
2023-04-25T01:05:38.197Z,48.22
2023-04-25T01:08:28.381Z,48.22
2023-04-25T01:11:14.008Z,48.26
2023-04-25T01:13:59.311Z,48.25
2023-04-25T01:16:46.091Z,47.94
2023-04-25T01:19:31.893Z,48.30
2023-04-25T01:22:17.906Z,48.20
2023-04-25T01:25:04.029Z,48.26
2023-04-25T01:27:50.595Z,48.26
2023-04-25T01:30:36.700Z,48.35
2023-04-25T01:33:22.389Z,48.29
2023-04-25T01:36:07.924Z,48.30
2023-04-25T01:38:54.179Z,48.32
2023-04-25T01:41:41.346Z,48.24
2023-04-25T01:44:27.194Z,48.28
2023-04-25T01:47:12.734Z,48.29
2023-04-25T01:49:57.861Z,48.50
2023-04-25T01:52:43.383Z,48.28
2023-04-25T01:55:29.476Z,48.35
2023-04-25T01:58:25.353Z,48.47
2023-04-25T02:01:29.589Z,48.67
2023-04-25T02:04:31.850Z,48.56
2023-04-25T02:07:17.752Z,48.50
2023-04-25T02:10:10.344Z,48.58
2023-04-25T02:13:07.906Z,48.24
2023-04-25T02:16:02.949Z,48.54
2023-04-25T02:18:49.178Z,48.49
2023-04-25T02:21:36.749Z,48.55
2023-04-25T02:24:23.094Z,48.59
2023-04-25T02:27:08.817Z,48.52
2023-04-25T02:29:54.596Z,48.61
2023-04-25T02:32:40.952Z,48.55
2023-04-25T02:35:26.034Z,48.57
2023-04-25T02:38:13.461Z,48.48
2023-04-25T02:40:59.237Z,48.52
2023-04-25T02:43:44.942Z,48.63
2023-04-25T02:46:38.915Z,48.49
2023-04-25T02:49:25.109Z,49.25
2023-04-25T02:52:12.013Z,50.18
2023-04-25T02:54:57.488Z,50.13
2023-04-25T02:57:44.779Z,47.46
2023-04-25T03:00:33.563Z,48.43
2023-04-25T03:03:19.182Z,48.69
2023-04-25T03:06:04.871Z,49.02
2023-04-25T03:08:52.059Z,49.01
2023-04-25T03:11:39.628Z,49.10
2023-04-25T03:14:25.453Z,49.08
2023-04-25T03:17:11.249Z,49.02
2023-04-25T03:19:56.921Z,49.17
2023-04-25T03:22:42.496Z,49.11
2023-04-25T03:25:27.622Z,48.33
2023-04-25T03:28:12.885Z,48.59
2023-04-25T03:30:58.506Z,48.76
2023-04-25T03:33:43.831Z,48.73
2023-04-25T03:36:29.657Z,48.69
2023-04-25T03:39:14.877Z,48.81
2023-04-25T03:42:05.221Z,48.80
2023-04-25T03:44:51.048Z,48.84
2023-04-25T03:47:36.413Z,48.62
2023-04-25T03:50:21.800Z,49.48
2023-04-25T03:53:07.490Z,50.29
2023-04-25T03:56:12.784Z,50.84
2023-04-25T03:58:59.368Z,50.19
2023-04-25T04:01:47.412Z,50.62
2023-04-25T04:04:32.799Z,51.10
2023-04-25T04:07:19.327Z,50.77
2023-04-25T04:10:08.603Z,50.47
2023-04-25T04:12:56.641Z,50.89
2023-04-25T04:15:41.945Z,50.29
2023-04-25T04:18:27.273Z,50.04
2023-04-25T04:21:14.973Z,50.04
2023-04-25T04:24:01.737Z,50.21
2023-04-25T04:26:51.768Z,50.46
2023-04-25T04:30:04.308Z,50.27
2023-04-25T04:32:58.173Z,50.23
2023-04-25T04:35:44.578Z,50.49
2023-04-25T04:38:31.204Z,50.41
2023-04-25T04:41:20.667Z,50.97
2023-04-25T04:44:29.826Z,50.22
2023-04-25T04:47:44.800Z,49.93
2023-04-25T04:50:51.435Z,50.11
2023-04-25T04:53:47.933Z,50.25
2023-04-25T04:56:39.335Z,49.92
2023-04-25T04:59:44.993Z,50.35
2023-04-25T05:02:50.885Z,50.17
2023-04-25T05:06:00.118Z,49.78
2023-04-25T05:09:05.051Z,47.81
2023-04-25T05:12:10.723Z,49.39
2023-04-25T05:15:23.787Z,49.70
2023-04-25T05:18:12.201Z,50.06
2023-04-25T05:21:04.178Z,49.95
2023-04-25T05:24:06.618Z,49.95
2023-04-25T05:27:09.777Z,50.10
2023-04-25T05:30:15.366Z,49.97
2023-04-25T05:33:14.740Z,50.20
2023-04-25T05:36:00.398Z,49.94
2023-04-25T05:38:46.377Z,50.21
2023-04-25T05:41:40.971Z,50.24
2023-04-25T05:44:43.920Z,50.11
2023-04-25T05:47:48.141Z,50.07
2023-04-25T05:50:46.465Z,50.25
2023-04-25T05:53:58.088Z,50.33
2023-04-25T05:56:43.740Z,50.43
2023-04-25T05:59:29.101Z,50.36
2023-04-25T06:02:14.521Z,50.48
2023-04-25T06:05:01.306Z,50.37
2023-04-25T06:07:46.711Z,50.41
2023-04-25T06:10:31.890Z,50.45
2023-04-25T06:13:17.907Z,50.48
2023-04-25T06:16:03.841Z,50.60
2023-04-25T06:18:49.103Z,50.59
2023-04-25T06:21:34.287Z,50.53
2023-04-25T06:24:19.902Z,50.59
2023-04-25T06:27:06.091Z,50.69
2023-04-25T06:29:51.377Z,50.44
2023-04-25T06:32:36.700Z,50.75
2023-04-25T06:35:22.993Z,50.75
2023-04-25T06:38:08.355Z,50.65
2023-04-25T06:40:55.544Z,51.14
2023-04-25T06:43:41.124Z,50.53
2023-04-25T06:46:43.731Z,50.57
2023-04-25T06:49:28.899Z,50.73
2023-04-25T06:52:14.684Z,50.60
2023-04-25T06:55:01.056Z,50.68
2023-04-25T06:57:57.416Z,51.03
2023-04-25T07:01:21.310Z,50.66
2023-04-25T07:04:07.327Z,50.57
2023-04-25T07:06:57.813Z,50.59
2023-04-25T07:09:52.523Z,50.68
2023-04-25T07:12:37.866Z,50.78
2023-04-25T07:15:28.290Z,50.57
2023-04-25T07:18:14.187Z,50.58
2023-04-25T07:20:59.383Z,50.61
2023-04-25T07:23:44.774Z,50.59
2023-04-25T07:26:34.611Z,50.60
2023-04-25T07:29:46.368Z,50.52
2023-04-25T07:32:31.833Z,50.50
2023-04-25T07:35:18.073Z,50.32
2023-04-25T07:38:04.055Z,50.52
2023-04-25T07:40:50.195Z,50.48
2023-04-25T07:43:36.295Z,50.26
2023-04-25T07:46:22.570Z,50.23
2023-04-25T07:49:07.946Z,50.41
2023-04-25T07:51:53.603Z,50.48
2023-04-25T07:54:40.033Z,50.33
2023-04-25T07:57:33.988Z,50.29
2023-04-25T08:00:20.752Z,50.36
2023-04-25T08:03:13.617Z,50.33
2023-04-25T08:06:02.213Z,50.06
2023-04-25T08:08:53.095Z,49.82
2023-04-25T08:11:42.853Z,50.07
2023-04-25T08:14:36.642Z,50.33
2023-04-25T08:17:23.378Z,50.29
2023-04-25T08:20:09.957Z,50.20
2023-04-25T08:22:55.614Z,50.28
2023-04-25T08:26:04.258Z,50.33
2023-04-25T08:28:53.824Z,50.29
2023-04-25T08:31:38.975Z,50.60
2023-04-25T08:34:26.903Z,50.37
2023-04-25T08:37:12.344Z,50.29
2023-04-25T08:40:29.764Z,50.29
2023-04-25T08:43:21.348Z,50.25
2023-04-25T08:46:09.029Z,50.21
2023-04-25T08:49:13.309Z,50.25
2023-04-25T08:52:02.208Z,50.16
2023-04-25T08:54:49.940Z,50.24
2023-04-25T08:57:36.905Z,50.26
2023-04-25T09:00:23.895Z,50.33
2023-04-25T09:03:09.682Z,50.08
2023-04-25T09:05:56.590Z,50.16
2023-04-25T09:08:42.241Z,50.19
2023-04-25T09:11:28.167Z,50.16
2023-04-25T09:14:16.744Z,50.16
2023-04-25T09:17:21.166Z,50.13
2023-04-25T09:20:16.143Z,50.24
2023-04-25T09:23:06.422Z,50.04
2023-04-25T09:25:54.856Z,50.21
2023-04-25T09:28:40.785Z,50.25
2023-04-25T09:31:26.481Z,50.19
2023-04-25T09:34:17.984Z,50.28
2023-04-25T09:37:11.916Z,50.26
2023-04-25T09:40:24.309Z,50.17
2023-04-25T09:43:29.813Z,50.08
2023-04-25T09:46:16.554Z,50.18
2023-04-25T09:49:10.303Z,50.29
2023-04-25T09:52:25.382Z,50.21
2023-04-25T09:55:30.673Z,50.11
2023-04-25T09:58:16.786Z,50.08
2023-04-25T10:01:10.362Z,50.22
2023-04-25T10:04:11.629Z,50.11
2023-04-25T10:07:12.496Z,50.19
2023-04-25T10:10:05.236Z,50.04
2023-04-25T10:12:51.074Z,50.10
2023-04-25T10:15:40.478Z,50.03
2023-04-25T10:18:28.452Z,50.04
2023-04-25T10:21:14.963Z,50.18
2023-04-25T10:24:01.107Z,50.04
2023-04-25T10:26:47.102Z,50.13
2023-04-25T10:29:32.662Z,50.12
2023-04-25T10:32:17.838Z,50.04
2023-04-25T10:35:24.783Z,50.05
2023-04-25T10:38:14.791Z,50.22
2023-04-25T10:41:12.461Z,50.16
2023-04-25T10:44:02.535Z,50.05
2023-04-25T10:46:48.176Z,49.98
2023-04-25T10:49:36.028Z,50.17
2023-04-25T10:52:29.369Z,50.18
2023-04-25T10:55:14.566Z,50.16
2023-04-25T10:57:59.952Z,50.22
2023-04-25T11:00:56.719Z,50.02
2023-04-25T11:03:44.867Z,50.09
2023-04-25T11:06:55.907Z,50.09
2023-04-25T11:09:46.870Z,50.08
2023-04-25T11:12:33.133Z,50.15
2023-04-25T11:15:18.599Z,49.98
2023-04-25T11:18:04.232Z,50.11
2023-04-25T11:20:50.794Z,49.97
2023-04-25T11:23:36.661Z,50.10
2023-04-25T11:26:22.973Z,50.16
2023-04-25T11:29:08.485Z,50.13
2023-04-25T11:31:56.904Z,50.25
2023-04-25T11:34:44.579Z,49.81
2023-04-25T11:37:30.188Z,50.13
2023-04-25T11:40:15.772Z,50.21
2023-04-25T11:43:02.263Z,50.13
2023-04-25T11:45:49.222Z,49.82
2023-04-25T11:48:41.659Z,50.08
2023-04-25T11:51:27.234Z,50.10
2023-04-25T11:54:13.518Z,49.96
2023-04-25T11:56:58.932Z,49.91
2023-04-25T11:59:45.083Z,49.96
2023-04-25T12:02:30.909Z,50.03
2023-04-25T12:05:31.202Z,49.86
2023-04-25T12:08:18.262Z,49.84
2023-04-25T12:11:04.030Z,49.84
2023-04-25T12:13:54.330Z,49.83
2023-04-25T12:16:47.419Z,50.09
2023-04-25T12:19:35.311Z,50.08
2023-04-25T12:22:24.454Z,50.07
2023-04-25T12:25:10.390Z,50.01
2023-04-25T12:27:55.743Z,50.01
2023-04-25T12:31:17.307Z,50.06
2023-04-25T12:34:03.389Z,50.03
2023-04-25T12:36:49.878Z,50.17
2023-04-25T12:39:35.285Z,50.04
2023-04-25T12:42:20.837Z,47.02
2023-04-25T12:45:07.116Z,48.80
2023-04-25T12:47:52.714Z,49.23
2023-04-25T12:50:38.355Z,49.66
2023-04-25T12:53:27.462Z,49.64
2023-04-25T12:56:12.931Z,49.57
2023-04-25T12:58:59.284Z,49.43
2023-04-25T13:01:46.555Z,49.58
2023-04-25T13:04:32.376Z,49.61
2023-04-25T13:07:17.909Z,49.44
2023-04-25T13:10:04.094Z,49.27
2023-04-25T13:12:49.984Z,49.34
2023-04-25T13:15:35.393Z,50.15
2023-04-25T13:18:20.898Z,50.37
2023-04-25T13:21:07.380Z,51.33
2023-04-25T13:23:53.341Z,50.37
2023-04-25T13:26:39.371Z,49.89
2023-04-25T13:29:24.637Z,49.92
2023-04-25T13:32:10.434Z,49.58
2023-04-25T13:34:57.016Z,49.32
2023-04-25T13:37:42.200Z,49.43
2023-04-25T13:40:28.280Z,49.47
2023-04-25T13:43:13.975Z,49.58
2023-04-25T13:45:59.618Z,49.79
2023-04-25T13:48:47.480Z,49.77
2023-04-25T13:51:33.467Z,49.62
2023-04-25T13:54:19.175Z,48.66
2023-04-25T13:57:04.758Z,49.88
2023-04-25T13:59:49.983Z,50.68
2023-04-25T14:02:39.109Z,51.49
2023-04-25T14:05:24.535Z,51.83
2023-04-25T14:08:10.958Z,51.91
2023-04-25T14:10:56.325Z,51.60
2023-04-25T14:13:41.618Z,52.13
2023-04-25T14:16:27.676Z,51.78
2023-04-25T14:19:13.539Z,50.64
2023-04-25T14:21:58.690Z,51.36
2023-04-25T14:24:44.447Z,51.63
2023-04-25T14:27:30.158Z,51.76
2023-04-25T14:30:16.237Z,51.80
2023-04-25T14:33:02.008Z,51.86
2023-04-25T14:35:52.420Z,52.08
2023-04-25T14:38:47.913Z,49.18
2023-04-25T14:41:34.134Z,50.54
2023-04-25T14:44:19.830Z,51.11
2023-04-25T14:47:06.516Z,51.31
2023-04-25T14:49:55.081Z,51.55
2023-04-25T14:52:40.580Z,51.43
2023-04-25T14:55:26.368Z,51.04
2023-04-25T14:58:11.522Z,50.92
2023-04-25T15:00:56.840Z,50.82
2023-04-25T15:03:42.721Z,51.15
2023-04-25T15:06:29.912Z,51.94
2023-04-25T15:09:17.330Z,52.08
2023-04-25T15:12:03.387Z,53.01
2023-04-25T15:14:48.604Z,52.50
2023-04-25T15:17:34.075Z,52.44
2023-04-25T15:20:19.523Z,51.79
2023-04-25T15:23:05.948Z,51.20
2023-04-25T15:25:53.477Z,51.45
2023-04-25T15:28:38.886Z,51.77
2023-04-25T15:31:24.763Z,51.73
2023-04-25T15:34:10.152Z,51.91
2023-04-25T15:36:55.662Z,51.69
2023-04-25T15:39:41.600Z,51.31
2023-04-25T15:42:26.962Z,50.00
2023-04-25T15:45:12.439Z,49.98
2023-04-25T15:47:57.784Z,49.74
2023-04-25T15:50:42.864Z,49.88
2023-04-25T15:53:28.060Z,49.59
2023-04-25T15:56:13.426Z,49.35
2023-04-25T15:58:58.817Z,48.89
2023-04-25T16:01:44.236Z,48.69
2023-04-25T16:04:35.402Z,48.67
2023-04-25T16:07:21.511Z,48.89
2023-04-25T16:10:07.775Z,49.61
2023-04-25T16:12:53.709Z,49.10
2023-04-25T16:15:39.992Z,49.19
2023-04-25T16:18:25.257Z,49.15
2023-04-25T16:21:17.361Z,49.22
2023-04-25T16:24:03.749Z,49.09
2023-04-25T16:26:50.634Z,48.20
2023-04-25T16:29:36.024Z,47.67
2023-04-25T16:32:22.384Z,47.16
2023-04-25T16:35:10.281Z,47.29
2023-04-25T16:37:55.833Z,46.97
2023-04-25T16:40:41.644Z,46.99
2023-04-25T16:43:27.345Z,46.65
2023-04-25T16:46:12.669Z,46.46
2023-04-25T16:48:57.824Z,47.26
2023-04-25T16:51:43.732Z,48.54
2023-04-25T16:54:29.296Z,47.66
2023-04-25T16:57:15.353Z,46.84
2023-04-25T17:00:00.762Z,46.72
2023-04-25T17:02:46.307Z,44.15
2023-04-25T17:05:32.259Z,43.24
2023-04-25T17:08:17.933Z,43.50
2023-04-25T17:11:04.298Z,43.92
2023-04-25T17:13:49.772Z,44.08
2023-04-25T17:16:37.188Z,43.97
2023-04-25T17:19:22.856Z,44.38
2023-04-25T17:22:08.276Z,45.17
2023-04-25T17:24:55.048Z,44.92
2023-04-25T17:27:41.064Z,44.67
2023-04-25T17:30:27.056Z,44.48
2023-04-25T17:33:13.691Z,45.81
2023-04-25T17:35:59.734Z,44.55
2023-04-25T17:38:45.634Z,43.49
2023-04-25T17:41:31.414Z,43.23
2023-04-25T17:44:16.680Z,43.47
2023-04-25T17:47:02.144Z,42.65
2023-04-25T17:49:47.576Z,41.98
2023-04-25T17:52:33.487Z,42.08
2023-04-25T17:55:18.896Z,42.84
2023-04-25T17:58:04.226Z,43.07
2023-04-25T18:00:49.931Z,43.07
2023-04-25T18:03:38.100Z,42.86
2023-04-25T18:06:23.395Z,43.00
2023-04-25T18:09:16.155Z,43.05
2023-04-25T18:12:05.394Z,42.88
2023-04-25T18:14:50.700Z,42.75
2023-04-25T18:17:40.309Z,42.68
2023-04-25T18:20:28.741Z,42.55
2023-04-25T18:23:14.592Z,42.68
2023-04-25T18:25:59.945Z,42.48
2023-04-25T18:28:45.265Z,42.35
2023-04-25T18:31:32.213Z,42.70
2023-04-25T18:34:20.451Z,42.91
2023-04-25T18:37:06.144Z,43.41
2023-04-25T18:39:52.174Z,43.81
2023-04-25T18:42:37.984Z,44.18
2023-04-25T18:45:23.394Z,44.50
2023-04-25T18:48:09.077Z,44.62
2023-04-25T18:50:54.719Z,44.81
2023-04-25T18:53:41.477Z,44.99
2023-04-25T18:56:27.815Z,45.09
2023-04-25T18:59:15.918Z,45.17
2023-04-25T19:02:02.069Z,45.43
2023-04-25T19:04:47.878Z,45.57
2023-04-25T19:07:34.049Z,45.60
2023-04-25T19:10:20.081Z,45.67
2023-04-25T19:13:06.551Z,45.76
2023-04-25T19:15:52.371Z,45.71
2023-04-25T19:18:38.721Z,45.87
2023-04-25T19:21:24.369Z,45.85
2023-04-25T19:24:10.046Z,45.97
2023-04-25T19:26:55.720Z,46.05
2023-04-25T19:29:46.037Z,46.03
2023-04-25T19:32:32.010Z,46.11
2023-04-25T19:35:18.113Z,46.16
2023-04-25T19:38:04.181Z,46.25
2023-04-25T19:40:49.561Z,46.31
2023-04-25T19:43:34.821Z,46.36
2023-04-25T19:46:20.217Z,46.48
2023-04-25T19:49:08.167Z,46.39
2023-04-25T19:51:54.210Z,47.73
2023-04-25T19:54:39.903Z,47.83
2023-04-25T19:57:27.856Z,47.23
2023-04-25T20:00:18.574Z,47.06
2023-04-25T20:03:05.162Z,47.11
2023-04-25T20:05:50.319Z,47.13
2023-04-25T20:08:36.194Z,47.16
2023-04-25T20:11:21.894Z,47.05
2023-04-25T20:14:07.435Z,47.17
2023-04-25T20:16:52.718Z,47.10
2023-04-25T20:19:39.348Z,47.10
2023-04-25T20:22:25.644Z,47.22
2023-04-25T20:25:12.135Z,47.26
2023-04-25T20:27:57.862Z,47.16
2023-04-25T20:30:43.942Z,47.31
2023-04-25T20:33:29.564Z,47.20
2023-04-25T20:36:15.667Z,47.27
2023-04-25T20:39:01.630Z,47.30
2023-04-25T20:41:47.512Z,47.50
2023-04-25T20:44:32.970Z,47.28
2023-04-25T20:47:18.491Z,47.52
2023-04-25T20:50:05.992Z,47.55
2023-04-25T20:52:51.815Z,47.33
2023-04-25T20:55:37.451Z,47.53
2023-04-25T20:58:22.758Z,47.62
2023-04-25T21:01:09.013Z,47.65
2023-04-25T21:03:55.044Z,47.60
2023-04-25T21:06:40.597Z,47.62
2023-04-25T21:09:26.212Z,47.63
2023-04-25T21:12:12.052Z,47.77
2023-04-25T21:14:57.293Z,47.73
2023-04-25T21:17:42.647Z,47.78
2023-04-25T21:20:27.929Z,47.62
2023-04-25T21:23:13.275Z,47.79
2023-04-25T21:25:58.483Z,47.74
2023-04-25T21:28:43.829Z,47.64
2023-04-25T21:31:29.216Z,47.68
2023-04-25T21:34:14.683Z,47.70
2023-04-25T21:37:00.149Z,47.58
2023-04-25T21:39:48.046Z,47.69
2023-04-25T21:42:33.454Z,47.75
2023-04-25T21:45:20.678Z,47.69
2023-04-25T21:48:06.465Z,47.73
2023-04-25T21:50:51.925Z,47.55
2023-04-25T21:53:37.299Z,47.91
2023-04-25T21:56:23.131Z,49.81
2023-04-25T21:59:08.552Z,50.11
2023-04-25T22:01:53.869Z,49.88
2023-04-25T22:04:39.815Z,49.84
2023-04-25T22:07:25.586Z,49.74
2023-04-25T22:10:11.136Z,50.18
2023-04-25T22:12:56.722Z,50.03
2023-04-25T22:15:42.242Z,49.80
2023-04-25T22:18:27.987Z,49.97
2023-04-25T22:21:13.498Z,49.82
2023-04-25T22:24:00.241Z,49.68
2023-04-25T22:26:45.525Z,49.67
2023-04-25T22:29:31.398Z,49.69
2023-04-25T22:32:16.655Z,49.78
2023-04-25T22:35:02.891Z,49.64
2023-04-25T22:37:48.399Z,49.72
2023-04-25T22:40:33.693Z,49.77
2023-04-25T22:43:19.053Z,49.67
2023-04-25T22:46:04.492Z,49.53
2023-04-25T22:48:50.663Z,49.80
2023-04-25T22:51:37.057Z,49.76
2023-04-25T22:54:22.721Z,49.75
2023-04-25T22:57:08.436Z,49.73
2023-04-25T22:59:55.153Z,49.79
2023-04-25T23:02:40.903Z,49.64
2023-04-25T23:05:26.838Z,49.64
2023-04-25T23:08:13.572Z,49.80
2023-04-25T23:10:59.225Z,49.75
2023-04-25T23:13:45.413Z,49.40
2023-04-25T23:16:31.331Z,49.67
2023-04-25T23:19:17.021Z,49.60
2023-04-25T23:22:02.238Z,49.60
2023-04-25T23:24:47.493Z,49.62
2023-04-25T23:27:32.991Z,49.62
2023-04-25T23:30:18.799Z,49.83
2023-04-25T23:33:04.422Z,49.76
2023-04-25T23:35:49.608Z,49.71
2023-04-25T23:38:34.892Z,49.79
2023-04-25T23:41:20.004Z,49.73
2023-04-25T23:44:07.811Z,49.76
2023-04-25T23:46:53.068Z,49.81
2023-04-25T23:49:38.213Z,49.78
2023-04-25T23:52:23.756Z,50.16
2023-04-25T23:55:09.890Z,49.66
2023-04-25T23:57:55.476Z,49.63
